Time;durP1;ratioP1;P1;durP2;ratioP2;P2;SDS_P1;SDS_P2;PMS_P1;PMS_P2;Temp;Humidity;BMP_temperature;BMP_pressure;BME280_temperature;BME280_humidity;BME280_pressure;Samples;Min_cycle;Max_cycle;Signal;HPM_P1;HPM_P2
2024/01/10 06:26:12;;;;;;;;;;;;;;;3.66;71.60;97373.75;4203351;27;10428;-66
2024/01/10 06:28:15;;;;;;;;;;;;;;;3.94;71.15;97374.72;4203989;28;5780;-65
2024/01/10 06:30:18;;;;;;;;;;;;;;;4.20;70.82;97375.00;4207797;28;5881;-63
2024/01/10 06:32:21;;;;;;;;;;;;;;;4.38;70.28;97378.53;4206412;28;5842;-67
2024/01/10 06:34:24;;;;;;;;;;;;;;;4.55;69.88;97380.47;4209517;28;5850;-66
2024/01/10 06:36:27;;;;;;;;;;;;;;;4.66;68.85;97379.47;4209001;28;5824;-67
2024/01/10 06:38:30;;;;;;;;;;;;;;;4.75;68.75;97377.75;4200288;28;5892;-66
2024/01/10 06:40:33;;;;;;;;;;;;;;;4.82;68.40;97381.47;4199842;28;5717;-67
2024/01/10 06:42:38;;;;;;;;;;;;;;;4.89;68.21;97372.91;4214179;28;5748;-67
2024/01/10 06:44:41;;;;;;;;;;;;;;;4.94;68.33;97378.53;4202069;28;5693;-61
2024/01/10 06:46:45;;;;;;;;;;;;;;;4.99;67.82;97383.38;4201724;28;5859;-61
2024/01/10 06:48:48;;;;;;;;;;;;;;;5.04;67.81;97385.53;4204569;28;5692;-61
2024/01/10 06:50:53;;;;;;;;;;;;;;;5.08;67.56;97384.28;4201381;28;5874;-61
2024/01/10 06:52:56;;;;;;;;;;;;;;;5.12;67.55;97385.66;4204150;28;5745;-60
2024/01/10 06:54:59;;;;;;;;;;;;;;;5.16;67.52;97379.16;4212614;28;5824;-61
2024/01/10 06:57:02;;;;;;;;;;;;;;;5.21;67.29;97385.63;4209305;28;6525;-60
2024/01/10 06:59:06;;;;;;;;;;;;;;;5.23;67.25;97385.47;4208749;28;6379;-60
2024/01/10 07:01:13;;;;;;;;;;;;;;;5.25;67.17;97379.09;4201245;28;5735;-60
2024/01/10 07:03:17;;;;;;;;;;;;;;;5.25;64.70;97378.28;4204844;28;5757;-60
2024/01/10 07:05:21;;;;;;;;;;;;;;;5.23;65.44;97385.47;4202480;28;5700;-66
2024/01/10 07:07:23;;;;;;;;;;;;;;;5.22;65.94;97384.66;4208432;28;5811;-61
2024/01/10 07:09:25;;;;;;;;;;;;;;;5.21;66.05;97377.75;4212846;28;5784;-61
2024/01/10 07:11:29;;;;;;;;;;;;;;;5.23;65.83;97377.59;4211986;28;5114;-61
2024/01/10 07:13:32;;;;;;;;;;;;;;;5.24;65.63;97376.63;4213638;28;5711;-60
2024/01/10 07:15:37;;;;;;;;;;;;;;;5.22;65.37;97389.88;4212609;28;5698;-62
2024/01/10 07:17:40;;;;;;;;;;;;;;;5.23;65.32;97390.72;4205335;28;5690;-62
2024/01/10 07:19:43;;;;;;;;;;;;;;;5.22;65.50;97386.44;4213803;28;5682;-62
2024/01/10 07:21:46;;;;;;;;;;;;;;;5.22;65.40;97392.50;4207479;28;5802;-61
2024/01/10 07:23:50;;;;;;;;;;;;;;;5.24;65.27;97393.19;4206004;28;5768;-64
2024/01/10 07:25:53;;;;;;;;;;;;;;;5.26;65.34;97388.63;4223387;28;5763;-61
2024/01/10 07:27:58;;;;;;;;;;;;;;;5.26;65.22;97399.09;4219161;28;5664;-62
2024/01/10 07:30:00;;;;;;;;;;;;;;;5.29;65.29;97395.34;4219236;28;5815;-61
2024/01/10 07:32:05;;;;;;;;;;;;;;;5.30;64.86;97396.19;4218366;28;5933;-61
2024/01/10 07:34:09;;;;;;;;;;;;;;;5.31;65.01;97403.06;4218829;28;6900;-61
2024/01/10 07:36:12;;;;;;;;;;;;;;;5.32;64.67;97402.09;4218729;28;6388;-61
2024/01/10 07:38:15;;;;;;;;;;;;;;;5.32;64.71;97409.97;4218917;28;5660;-61
2024/01/10 07:40:18;;;;;;;;;;;;;;;5.33;64.56;97409.03;4217746;28;5746;-61
2024/01/10 07:42:21;;;;;;;;;;;;;;;5.36;64.58;97411.34;4218414;28;5880;-61
2024/01/10 07:44:26;;;;;;;;;;;;;;;5.40;64.47;97412.69;4218518;28;5668;-61
2024/01/10 07:46:29;;;;;;;;;;;;;;;5.40;64.63;97415.31;4218359;28;5667;-61
2024/01/10 07:48:33;;;;;;;;;;;;;;;5.34;64.34;97410.66;4217357;28;5712;-67
2024/01/10 07:50:36;;;;;;;;;;;;;;;5.33;64.12;97416.88;4218334;28;5101;-61
2024/01/10 07:52:40;;;;;;;;;;;;;;;5.37;64.25;97418.25;4206270;28;5815;-60
2024/01/10 07:54:43;;;;;;;;;;;;;;;5.36;64.19;97412.16;4215304;28;5679;-60
2024/01/10 07:56:46;;;;;;;;;;;;;;;5.38;63.93;97412.03;4217107;28;5104;-60
2024/01/10 07:58:51;;;;;;;;;;;;;;;5.41;64.08;97415.16;4211823;28;5762;-61
2024/01/10 08:00:54;;;;;;;;;;;;;;;5.44;64.06;97417.53;4209909;28;5854;-61
2024/01/10 08:02:59;;;;;;;;;;;;;;;5.46;63.83;97409.50;4217618;28;5727;-61
2024/01/10 08:05:05;;;;;;;;;;;;;;;5.47;63.94;97408.53;4218330;28;5885;-60
2024/01/10 08:07:09;;;;;;;;;;;;;;;5.48;63.75;97412.81;4216988;28;5806;-60
2024/01/10 08:09:14;;;;;;;;;;;;;;;5.47;63.82;97401.50;4211031;28;5677;-61
2024/01/10 08:11:17;;;;;;;;;;;;;;;5.49;63.86;97401.34;4217702;28;5679;-61
2024/01/10 08:13:20;;;;;;;;;;;;;;;5.52;63.94;97407.09;4202953;28;5684;-62
2024/01/10 08:15:23;;;;;;;;;;;;;;;5.53;63.46;97408.75;4214922;28;5685;-61
2024/01/10 08:17:26;;;;;;;;;;;;;;;5.53;63.07;97408.75;4209119;28;5768;-60
2024/01/10 08:19:29;;;;;;;;;;;;;;;5.51;63.00;97413.31;4215463;28;5832;-61
2024/01/10 08:21:33;;;;;;;;;;;;;;;5.52;63.23;97411.53;4209986;28;5156;-61
2024/01/10 08:23:36;;;;;;;;;;;;;;;5.53;63.17;97421.88;4213458;28;5683;-61
2024/01/10 08:25:40;;;;;;;;;;;;;;;5.52;63.17;97424.63;4205601;28;5677;-61
2024/01/10 08:27:45;;;;;;;;;;;;;;;5.49;62.80;97423.13;4203843;28;5760;-61
2024/01/10 08:29:48;;;;;;;;;;;;;;;5.49;62.99;97428.38;4218533;28;5687;-61
2024/01/10 08:31:51;;;;;;;;;;;;;;;5.50;62.57;97413.47;4209535;28;5671;-61
2024/01/10 08:33:54;;;;;;;;;;;;;;;5.50;62.53;97410.84;4217904;28;5766;-61
2024/01/10 08:35:56;;;;;;;;;;;;;;;5.50;62.35;97413.47;4211607;28;5716;-61
2024/01/10 08:38:02;;;;;;;;;;;;;;;5.49;62.43;97412.66;4215152;28;5723;-61
2024/01/10 08:40:09;;;;;;;;;;;;;;;5.51;61.43;97405.44;4218445;28;5663;-61
2024/01/10 08:42:12;;;;;;;;;;;;;;;5.48;60.94;97420.66;4217941;28;5848;-61
2024/01/10 08:44:15;;;;;;;;;;;;;;;5.42;61.03;97418.63;4207055;28;5693;-61
2024/01/10 08:46:19;;;;;;;;;;;;;;;5.39;61.61;97416.28;4200976;28;5848;-61
2024/01/10 08:48:23;;;;;;;;;;;;;;;5.41;61.90;97419.59;4211067;28;5683;-61
2024/01/10 08:50:26;;;;;;;;;;;;;;;5.43;61.78;97426.34;4207509;28;5788;-61
2024/01/10 08:52:28;;;;;;;;;;;;;;;5.49;61.85;97430.19;4203625;28;5685;-61
2024/01/10 08:54:33;;;;;;;;;;;;;;;5.46;61.64;97435.72;4212549;28;5680;-61
2024/01/10 08:56:36;;;;;;;;;;;;;;;5.49;61.72;97445.91;4214294;28;5678;-61
2024/01/10 08:58:40;;;;;;;;;;;;;;;5.53;61.65;97429.72;4211724;28;5788;-61
2024/01/10 09:00:44;;;;;;;;;;;;;;;5.53;61.54;97426.28;4204624;28;5677;-60
2024/01/10 09:02:47;;;;;;;;;;;;;;;5.52;61.46;97435.94;4212317;28;5672;-60
2024/01/10 09:04:49;;;;;;;;;;;;;;;5.54;61.80;97436.63;4212216;28;5741;-61
2024/01/10 09:06:52;;;;;;;;;;;;;;;5.55;61.62;97442.72;4206684;28;5097;-62
2024/01/10 09:08:55;;;;;;;;;;;;;;;5.57;61.59;97434.72;4215275;28;5659;-62
2024/01/10 09:10:59;;;;;;;;;;;;;;;5.57;61.33;97432.91;4205289;28;5826;-61
2024/01/10 09:13:03;;;;;;;;;;;;;;;5.59;61.36;97435.38;4217229;28;5663;-61
2024/01/10 09:15:08;;;;;;;;;;;;;;;5.57;61.09;97437.34;4217291;28;5671;-61
2024/01/10 09:17:11;;;;;;;;;;;;;;;5.56;61.38;97433.88;4200913;28;5700;-61
2024/01/10 09:19:15;;;;;;;;;;;;;;;5.58;61.34;97438.97;4209882;28;5696;-61
2024/01/10 09:21:20;;;;;;;;;;;;;;;5.59;61.31;97438.84;4218020;28;5754;-61
2024/01/10 09:23:24;;;;;;;;;;;;;;;5.61;61.37;97447.38;4217901;28;5683;-60
2024/01/10 09:25:26;;;;;;;;;;;;;;;5.64;60.97;97452.31;4217676;28;5778;-61
2024/01/10 09:27:32;;;;;;;;;;;;;;;5.66;61.11;97465.28;4217777;28;5880;-61
2024/01/10 09:29:35;;;;;;;;;;;;;;;5.66;60.99;97460.88;4218033;28;5683;-61
2024/01/10 09:31:39;;;;;;;;;;;;;;;5.65;61.09;97461.84;4214571;28;5731;-61
2024/01/10 09:33:43;;;;;;;;;;;;;;;5.64;61.05;97462.81;4208292;28;5799;-61
2024/01/10 09:35:45;;;;;;;;;;;;;;;5.65;61.00;97467.09;4212371;28;6870;-61
2024/01/10 09:37:48;;;;;;;;;;;;;;;5.66;61.13;97467.91;4205775;28;5677;-61
2024/01/10 09:39:52;;;;;;;;;;;;;;;5.67;61.01;97467.78;4200669;28;5700;-61
2024/01/10 09:41:55;;;;;;;;;;;;;;;5.70;61.19;97464.88;4201060;28;5820;-61
2024/01/10 09:44:00;;;;;;;;;;;;;;;5.71;60.79;97469.13;4211572;28;5675;-61
2024/01/10 09:46:07;;;;;;;;;;;;;;;5.74;61.15;97471.47;4213724;28;5648;-60
2024/01/10 09:48:11;;;;;;;;;;;;;;;5.75;61.00;97470.47;4205712;28;5677;-66
2024/01/10 09:50:14;;;;;;;;;;;;;;;5.75;60.82;97472.28;4201516;28;5855;-66
2024/01/10 09:52:27;;;;;;;;;;;;;;;5.77;60.97;97479.03;4215807;28;5914;-66
2024/01/10 09:54:32;;;;;;;;;;;;;;;5.79;60.87;97479.75;4213955;28;5823;-66
2024/01/10 09:56:35;;;;;;;;;;;;;;;5.81;60.68;97480.41;4211309;28;5687;-65
2024/01/10 09:58:40;;;;;;;;;;;;;;;5.83;60.91;97477.63;4208347;28;5688;-65
2024/01/10 10:00:45;;;;;;;;;;;;;;;5.86;60.80;97487.81;4201640;28;5697;-64
2024/01/10 10:02:49;;;;;;;;;;;;;;;5.89;60.76;97481.47;4205098;28;5765;-67
2024/01/10 10:04:57;;;;;;;;;;;;;;;5.88;60.74;97480.63;4211053;28;5782;-65
2024/01/10 10:07:01;;;;;;;;;;;;;;;5.90;60.74;97491.00;4209273;28;5835;-66
2024/01/10 10:09:07;;;;;;;;;;;;;;;5.92;60.38;97494.34;4207598;28;5760;-69
2024/01/10 10:11:14;;;;;;;;;;;;;;;5.95;60.66;97500.09;4206225;28;5842;-68
2024/01/10 10:13:27;;;;;;;;;;;;;;;5.98;60.40;97498.97;4203060;28;5660;-67
2024/01/10 10:15:30;;;;;;;;;;;;;;;5.98;60.46;97498.97;4214933;28;5885;-67
2024/01/10 10:17:35;;;;;;;;;;;;;;;5.96;60.56;97498.31;4216744;28;5661;-68
2024/01/10 10:19:39;;;;;;;;;;;;;;;5.98;60.31;97496.34;4211436;28;5675;-66
2024/01/10 10:21:43;;;;;;;;;;;;;;;5.97;60.35;97499.97;4216304;28;5100;-66
2024/01/10 10:24:00;;;;;;;;;;;;;;;5.96;60.12;97503.56;4216542;28;7699;-66
2024/01/10 10:26:11;;;;;;;;;;;;;;;5.97;60.52;97505.22;4215968;28;5740;-66
2024/01/10 10:28:14;;;;;;;;;;;;;;;5.97;60.57;97506.03;4216613;28;5688;-68
2024/01/10 10:30:33;;;;;;;;;;;;;;;5.95;60.28;97507.16;4215831;28;5680;-70
2024/01/10 10:32:38;;;;;;;;;;;;;;;5.91;60.29;97508.44;4213094;28;5674;-69
2024/01/10 10:34:41;;;;;;;;;;;;;;;5.86;60.13;97506.19;4212275;28;5668;-67
2024/01/10 10:36:45;;;;;;;;;;;;;;;5.85;60.11;97517.66;4215981;28;5672;-65
2024/01/10 10:38:49;;;;;;;;;;;;;;;5.82;60.14;97515.34;4215785;28;5679;-60
2024/01/10 10:40:53;;;;;;;;;;;;;;;5.77;60.30;97514.94;4214725;28;5747;-60
2024/01/10 10:42:57;;;;;;;;;;;;;;;5.73;59.99;97516.22;4209718;28;5779;-60
2024/01/10 10:45:04;;;;;;;;;;;;;;;5.74;60.06;97515.22;4206197;28;5884;-60
2024/01/10 10:47:11;;;;;;;;;;;;;;;5.71;60.35;97505.88;4208031;28;5697;-61
2024/01/10 10:49:20;;;;;;;;;;;;;;;5.69;60.02;97510.44;4196841;28;5979;-61
2024/01/10 10:51:34;;;;;;;;;;;;;;;5.72;60.13;97510.13;4209195;28;5687;-61
2024/01/10 10:53:38;;;;;;;;;;;;;;;5.73;60.10;97508.34;4204079;28;5668;-61
2024/01/10 10:55:43;;;;;;;;;;;;;;;5.72;59.94;97499.66;4203330;28;5690;-61
2024/01/10 10:57:47;;;;;;;;;;;;;;;5.74;60.09;97500.31;4204718;28;5086;-61
2024/01/10 11:00:08;;;;;;;;;;;;;;;5.78;59.76;97501.69;4199771;28;7847;-61
2024/01/10 11:02:11;;;;;;;;;;;;;;;5.77;60.00;97494.78;4199720;28;5700;-61
2024/01/10 11:04:17;;;;;;;;;;;;;;;5.78;59.90;97501.69;4208648;28;5731;-61
2024/01/10 11:06:21;;;;;;;;;;;;;;;5.82;59.98;97500.44;4219555;28;5767;-60
2024/01/10 11:08:25;;;;;;;;;;;;;;;5.85;59.81;97496.69;4210354;28;5688;-60
2024/01/10 11:10:33;;;;;;;;;;;;;;;5.90;59.97;97491.00;4203770;28;5692;-60
2024/01/10 11:12:55;;;;;;;;;;;;;;;5.92;59.75;97491.72;4203731;28;5788;-61
2024/01/10 11:15:15;;;;;;;;;;;;;;;5.91;59.63;97484.81;4215772;28;5695;-61
2024/01/10 11:17:34;;;;;;;;;;;;;;;5.90;59.73;97484.00;4207838;28;5989;-61
2024/01/10 11:19:58;;;;;;;;;;;;;;;5.95;59.77;97480.91;4207421;28;5329;-61
2024/01/10 11:22:11;;;;;;;;;;;;;;;5.99;59.72;97483.09;4216348;28;7103;-61
2024/01/10 11:24:15;;;;;;;;;;;;;;;6.03;59.50;97486.25;4203017;28;6867;-61
2024/01/10 11:26:20;;;;;;;;;;;;;;;6.09;59.75;97472.53;4208642;28;5676;-61
2024/01/10 11:28:26;;;;;;;;;;;;;;;6.14;59.46;97480.81;4211301;28;5663;-61
2024/01/10 11:30:37;;;;;;;;;;;;;;;6.16;59.57;97478.84;4201460;28;5898;-61
2024/01/10 11:32:40;;;;;;;;;;;;;;;6.17;59.32;97477.88;4212206;28;5815;-61
2024/01/10 11:35:07;;;;;;;;;;;;;;;6.18;59.43;97478.69;4207368;28;5834;-61
2024/01/10 11:37:11;;;;;;;;;;;;;;;6.17;59.63;97461.28;4203364;28;5813;-61
2024/01/10 11:39:14;;;;;;;;;;;;;;;6.22;59.33;97467.72;4202407;28;6073;-61
2024/01/10 11:41:21;;;;;;;;;;;;;;;6.24;59.50;97450.06;4209309;28;5660;-61
2024/01/10 11:43:24;;;;;;;;;;;;;;;6.24;59.45;97444.81;4207977;28;5680;-61
2024/01/10 11:45:37;;;;;;;;;;;;;;;6.23;59.37;97443.16;4206444;28;5940;-61
2024/01/10 11:47:41;;;;;;;;;;;;;;;6.22;59.39;97432.78;4209987;28;5780;-61
2024/01/10 11:49:54;;;;;;;;;;;;;;;6.22;59.48;97430.97;4214753;28;5854;-61
2024/01/10 11:52:00;;;;;;;;;;;;;;;6.23;59.44;97427.41;4201461;28;5867;-62
2024/01/10 11:54:04;;;;;;;;;;;;;;;6.22;59.29;97435.41;4208251;28;5753;-61
2024/01/10 11:56:14;;;;;;;;;;;;;;;6.22;59.45;97436.22;4212829;28;5738;-61
2024/01/10 11:58:28;;;;;;;;;;;;;;;6.25;59.37;97443.00;4207962;28;5674;-61
2024/01/10 12:00:32;;;;;;;;;;;;;;;6.28;59.21;97447.94;4212882;28;5687;-61
2024/01/10 12:02:35;;;;;;;;;;;;;;;6.29;59.37;97432.03;4218548;28;5661;-61
2024/01/10 12:04:38;;;;;;;;;;;;;;;6.33;59.29;97436.00;4218354;28;5689;-61
2024/01/10 12:06:50;;;;;;;;;;;;;;;6.33;59.30;97428.13;4218821;28;5751;-62
2024/01/10 12:08:54;;;;;;;;;;;;;;;6.35;59.40;97430.63;4218641;28;5668;-62
2024/01/10 12:10:57;;;;;;;;;;;;;;;6.38;59.16;97427.69;4209654;28;5842;-61
2024/01/10 12:13:01;;;;;;;;;;;;;;;6.40;59.26;97418.69;4205249;28;5749;-61
2024/01/10 12:15:06;;;;;;;;;;;;;;;6.41;59.20;97425.56;4216901;28;5735;-60
2024/01/10 12:17:10;;;;;;;;;;;;;;;6.41;59.13;97415.06;4218287;28;5726;-61
2024/01/10 12:19:12;;;;;;;;;;;;;;;6.42;59.24;97418.50;4210368;28;5784;-61
2024/01/10 12:21:15;;;;;;;;;;;;;;;6.41;59.22;97417.69;4207494;28;5796;-61
2024/01/10 12:23:18;;;;;;;;;;;;;;;6.43;59.13;97418.34;4216777;28;5663;-62
2024/01/10 12:25:23;;;;;;;;;;;;;;;6.46;58.87;97416.44;4205891;28;5866;-62
2024/01/10 12:27:25;;;;;;;;;;;;;;;6.46;59.13;97403.31;4209841;28;5827;-62
2024/01/10 12:29:32;;;;;;;;;;;;;;;6.48;59.30;97398.72;4204581;28;5861;-64
2024/01/10 12:31:36;;;;;;;;;;;;;;;6.50;59.22;97402.00;4209094;28;5739;-63
2024/01/10 12:33:39;;;;;;;;;;;;;;;6.50;58.74;97404.63;4217044;28;5730;-66
2024/01/10 12:35:42;;;;;;;;;;;;;;;6.50;58.88;97407.25;4212958;28;5788;-62
2024/01/10 12:37:54;;;;;;;;;;;;;;;6.51;58.81;97407.09;4204359;28;5663;-63
2024/01/10 12:39:59;;;;;;;;;;;;;;;6.55;58.85;97405.00;4215508;28;5964;-65
2024/01/10 12:42:03;;;;;;;;;;;;;;;6.58;58.69;97394.19;4218953;28;5722;-65
2024/01/10 12:44:07;;;;;;;;;;;;;;;6.61;58.29;97399.13;4218203;28;5664;-66
2024/01/10 12:46:11;;;;;;;;;;;;;;;6.63;58.23;97400.63;4215466;28;5701;-65
2024/01/10 12:48:17;;;;;;;;;;;;;;;6.65;58.19;97395.22;4215506;28;5664;-65
2024/01/10 12:50:20;;;;;;;;;;;;;;;6.65;58.55;97389.97;4212754;28;6495;-65
2024/01/10 12:52:24;;;;;;;;;;;;;;;6.66;58.34;97386.34;4214600;28;5755;-66
2024/01/10 12:54:28;;;;;;;;;;;;;;;6.68;58.21;97384.38;4216431;28;5747;-63
2024/01/10 12:56:31;;;;;;;;;;;;;;;6.65;58.30;97385.53;4216487;28;5142;-63
2024/01/10 12:58:36;;;;;;;;;;;;;;;6.63;58.19;97381.41;4214301;28;7706;-64
2024/01/10 13:00:39;;;;;;;;;;;;;;;6.62;58.30;97391.09;4212866;28;5668;-62
2024/01/10 13:02:42;;;;;;;;;;;;;;;6.62;58.10;97395.53;4212985;28;5743;-62
2024/01/10 13:04:47;;;;;;;;;;;;;;;6.63;57.64;97384.84;4205500;28;5846;-63
2024/01/10 13:06:50;;;;;;;;;;;;;;;6.62;57.77;97382.38;4216459;28;6396;-63
2024/01/10 13:08:54;;;;;;;;;;;;;;;6.64;57.79;97388.31;4217648;28;5747;-63
2024/01/10 13:10:57;;;;;;;;;;;;;;;6.61;58.03;97386.81;4212808;28;5681;-63
2024/01/10 13:12:59;;;;;;;;;;;;;;;6.64;57.69;97383.06;4217532;28;5750;-62
2024/01/10 13:15:04;;;;;;;;;;;;;;;6.64;57.87;97396.19;4216862;28;5656;-62
2024/01/10 13:17:08;;;;;;;;;;;;;;;6.65;58.05;97384.69;4216004;28;5999;-62
2024/01/10 13:19:11;;;;;;;;;;;;;;;6.69;57.90;97386.06;4214462;28;5684;-62
2024/01/10 13:21:14;;;;;;;;;;;;;;;6.66;57.57;97388.97;4213998;28;5776;-62
2024/01/10 13:23:18;;;;;;;;;;;;;;;6.61;57.48;97386.81;4216912;28;5672;-62
2024/01/10 13:25:23;;;;;;;;;;;;;;;6.64;57.75;97389.13;4215687;28;5739;-62
2024/01/10 13:27:26;;;;;;;;;;;;;;;6.68;57.51;97389.66;4217090;28;5657;-62
2024/01/10 13:29:28;;;;;;;;;;;;;;;6.67;57.49;97383.56;4216782;28;5663;-62
2024/01/10 13:31:34;;;;;;;;;;;;;;;6.65;57.18;97384.69;4216966;28;6489;-62
2024/01/10 13:33:38;;;;;;;;;;;;;;;6.63;57.47;97382.22;4209284;28;5671;-62
2024/01/10 13:35:49;;;;;;;;;;;;;;;6.60;57.07;97382.56;4213698;28;5775;-62
2024/01/10 13:37:52;;;;;;;;;;;;;;;6.57;57.18;97384.63;4204087;28;5697;-63
2024/01/10 13:39:55;;;;;;;;;;;;;;;6.58;56.95;97389.75;4214574;28;5742;-63
2024/01/10 13:41:59;;;;;;;;;;;;;;;6.60;57.02;97384.34;4212109;28;5671;-63
2024/01/10 13:44:02;;;;;;;;;;;;;;;6.60;57.08;97386.97;4214648;28;5668;-63
2024/01/10 13:46:06;;;;;;;;;;;;;;;6.58;56.85;97386.31;4216374;28;5830;-62
2024/01/10 13:48:13;;;;;;;;;;;;;;;6.58;57.26;97392.38;4200294;28;6663;-63
2024/01/10 13:50:16;;;;;;;;;;;;;;;6.56;56.96;97386.44;4209837;28;5667;-74
2024/01/10 13:52:19;;;;;;;;;;;;;;;6.53;57.16;97389.38;4210577;28;5809;-63
2024/01/10 13:54:22;;;;;;;;;;;;;;;6.51;56.88;97385.28;4204085;28;5791;-63
2024/01/10 13:56:25;;;;;;;;;;;;;;;6.50;56.93;97379.19;4207476;28;5720;-63
2024/01/10 13:58:28;;;;;;;;;;;;;;;6.51;56.87;97383.47;4210819;28;5784;-63
2024/01/10 14:00:31;;;;;;;;;;;;;;;6.52;56.98;97379.03;4210599;28;5840;-63
2024/01/10 14:02:35;;;;;;;;;;;;;;;6.53;56.76;97385.94;4211362;28;5664;-69
2024/01/10 14:04:40;;;;;;;;;;;;;;;6.51;57.00;97378.22;4214365;28;5677;-64
2024/01/10 14:06:43;;;;;;;;;;;;;;;6.47;56.66;97378.69;4215498;28;5877;-64
2024/01/10 14:08:48;;;;;;;;;;;;;;;6.41;56.69;97367.78;4207291;28;5089;-64
2024/01/10 14:10:52;;;;;;;;;;;;;;;6.36;56.78;97367.44;4215292;28;6381;-63
2024/01/10 14:12:55;;;;;;;;;;;;;;;6.28;56.31;97367.38;4208575;28;5732;-64
2024/01/10 14:14:57;;;;;;;;;;;;;;;6.32;56.70;97375.75;4216212;28;5663;-64
2024/01/10 14:17:05;;;;;;;;;;;;;;;6.36;56.80;97374.50;4200129;28;5699;-64
2024/01/10 14:19:08;;;;;;;;;;;;;;;6.36;56.50;97377.94;4208041;28;6516;-65
2024/01/10 14:21:13;;;;;;;;;;;;;;;6.32;56.64;97373.97;4216482;28;5750;-66
2024/01/10 14:23:17;;;;;;;;;;;;;;;6.32;56.39;97375.75;4209131;28;5668;-64
2024/01/10 14:25:21;;;;;;;;;;;;;;;6.34;56.63;97374.66;4209924;28;5685;-67
2024/01/10 14:27:25;;;;;;;;;;;;;;;6.34;56.45;97372.03;4216223;28;5656;-66
2024/01/10 14:29:29;;;;;;;;;;;;;;;6.35;56.63;97372.84;4204406;28;5099;-65
2024/01/10 14:31:33;;;;;;;;;;;;;;;6.39;56.87;97380.25;4206819;28;5833;-64
2024/01/10 14:33:56;;;;;;;;;;;;;;;6.42;56.93;97372.06;4214660;28;5727;-67
2024/01/10 14:36:01;;;;;;;;;;;;;;;6.44;56.64;97366.66;4214503;28;5774;-68
2024/01/10 14:38:05;;;;;;;;;;;;;;;6.41;56.52;97367.78;4211731;28;5888;-67
2024/01/10 14:40:09;;;;;;;;;;;;;;;6.39;56.62;97371.56;4217948;28;5742;-68
2024/01/10 14:42:13;;;;;;;;;;;;;;;6.33;56.84;97370.34;4203014;28;5761;-67
2024/01/10 14:44:16;;;;;;;;;;;;;;;6.31;56.73;97367.06;4212082;28;5819;-66
2024/01/10 14:46:20;;;;;;;;;;;;;;;6.30;56.96;97375.91;4213453;28;6623;-66
2024/01/10 14:48:23;;;;;;;;;;;;;;;6.29;56.90;97374.25;4217085;28;5782;-64
2024/01/10 14:50:26;;;;;;;;;;;;;;;6.31;56.87;97372.31;4217329;28;5719;-64
2024/01/10 14:52:28;;;;;;;;;;;;;;;6.34;56.91;97374.66;4212654;28;6350;-63
2024/01/10 14:54:33;;;;;;;;;;;;;;;6.34;57.04;97377.28;4208826;28;5781;-64
2024/01/10 14:56:37;;;;;;;;;;;;;;;6.33;56.74;97374.78;4207365;28;5690;-64
2024/01/10 14:58:41;;;;;;;;;;;;;;;6.33;56.87;97370.34;4214643;28;5688;-64
2024/01/10 15:00:44;;;;;;;;;;;;;;;6.36;56.80;97379.75;4219094;28;5660;-64
2024/01/10 15:02:47;;;;;;;;;;;;;;;6.34;57.13;97374.66;4210801;28;6406;-63
2024/01/10 15:04:50;;;;;;;;;;;;;;;6.37;57.16;97376.97;4212316;28;5743;-64
2024/01/10 15:06:52;;;;;;;;;;;;;;;6.36;57.06;97375.31;4219537;28;5672;-63
2024/01/10 15:08:55;;;;;;;;;;;;;;;6.36;57.25;97377.94;4217408;28;5850;-59
2024/01/10 15:11:00;;;;;;;;;;;;;;;6.36;57.05;97374.50;4212916;28;5808;-65
2024/01/10 15:13:03;;;;;;;;;;;;;;;6.34;57.23;97374.66;4217078;28;5676;-62
2024/01/10 15:15:08;;;;;;;;;;;;;;;6.35;56.99;97371.03;4214202;28;6613;-64
2024/01/10 15:17:11;;;;;;;;;;;;;;;6.38;57.25;97368.09;4203517;28;5837;-64
2024/01/10 15:19:17;;;;;;;;;;;;;;;6.41;56.96;97373.03;4212891;28;5866;-67
2024/01/10 15:21:21;;;;;;;;;;;;;;;6.43;57.22;97365.00;4216813;28;5937;-69
2024/01/10 15:23:23;;;;;;;;;;;;;;;6.46;56.97;97374.41;4212406;28;5697;-69
2024/01/10 15:25:27;;;;;;;;;;;;;;;6.47;57.00;97376.88;4209993;28;5675;-70
2024/01/10 15:27:32;;;;;;;;;;;;;;;6.46;57.15;97371.78;4211260;28;5865;-71
2024/01/10 15:29:36;;;;;;;;;;;;;;;6.46;57.24;97369.16;4210338;28;5751;-65
2024/01/10 15:31:40;;;;;;;;;;;;;;;6.48;57.08;97373.28;4211123;28;5656;-61
2024/01/10 15:33:43;;;;;;;;;;;;;;;6.46;57.17;97374.41;4219532;28;5739;-60
2024/01/10 15:35:46;;;;;;;;;;;;;;;6.46;57.03;97377.03;4216053;28;5678;-60
2024/01/10 15:37:50;;;;;;;;;;;;;;;6.46;57.27;97383.13;4216454;28;5750;-60
2024/01/10 15:39:53;;;;;;;;;;;;;;;6.47;57.05;97383.94;4216796;28;5696;-61
2024/01/10 15:41:56;;;;;;;;;;;;;;;6.47;56.78;97381.31;4219587;28;5711;-61
2024/01/10 15:44:01;;;;;;;;;;;;;;;6.46;57.09;97384.91;4202792;28;5708;-60
2024/01/10 15:46:06;;;;;;;;;;;;;;;6.46;56.91;97380.50;4214033;28;5771;-61
2024/01/10 15:48:09;;;;;;;;;;;;;;;6.46;56.89;97382.28;4218884;28;5831;-61
2024/01/10 15:50:13;;;;;;;;;;;;;;;6.47;56.98;97389.19;4217063;28;5882;-61
2024/01/10 15:52:15;;;;;;;;;;;;;;;6.48;56.72;97388.22;4218549;28;5692;-60
2024/01/10 15:54:18;;;;;;;;;;;;;;;6.47;56.80;97390.00;4219083;28;5795;-60
2024/01/10 15:56:22;;;;;;;;;;;;;;;6.48;56.85;97390.84;4213407;28;5799;-60
2024/01/10 15:58:26;;;;;;;;;;;;;;;6.49;56.92;97395.09;4213710;28;5775;-60
2024/01/10 16:00:32;;;;;;;;;;;;;;;6.49;56.92;97388.06;4204425;28;5673;-60
2024/01/10 16:02:36;;;;;;;;;;;;;;;6.48;56.85;97390.84;4215687;28;5123;-61
2024/01/10 16:04:39;;;;;;;;;;;;;;;6.47;56.93;97391.81;4213648;28;5660;-60
2024/01/10 16:06:42;;;;;;;;;;;;;;;6.47;56.57;97394.44;4217605;28;5676;-60
2024/01/10 16:08:45;;;;;;;;;;;;;;;6.46;56.57;97384.91;4217290;28;5669;-59
2024/01/10 16:10:49;;;;;;;;;;;;;;;6.42;56.77;97390.44;4217499;28;5830;-60
2024/01/10 16:12:53;;;;;;;;;;;;;;;6.42;56.73;97395.69;4217222;28;5751;-60
2024/01/10 16:14:56;;;;;;;;;;;;;;;6.41;56.39;97390.59;4216479;28;5742;-61
2024/01/10 16:17:02;;;;;;;;;;;;;;;6.36;56.21;97391.06;4216830;28;5680;-60
2024/01/10 16:19:06;;;;;;;;;;;;;;;6.34;56.67;97381.69;4217522;28;5679;-60
2024/01/10 16:21:09;;;;;;;;;;;;;;;6.37;56.43;97378.78;4217667;28;5851;-61
2024/01/10 16:23:12;;;;;;;;;;;;;;;6.38;56.58;97393.53;4215523;28;5812;-60
2024/01/10 16:25:15;;;;;;;;;;;;;;;6.38;56.44;97391.75;4216894;28;5742;-60
2024/01/10 16:27:19;;;;;;;;;;;;;;;6.37;56.31;97391.91;4216916;28;5752;-60
2024/01/10 16:29:21;;;;;;;;;;;;;;;6.36;56.58;97392.88;4216977;28;5673;-60
2024/01/10 16:31:24;;;;;;;;;;;;;;;6.36;56.48;97390.25;4216612;28;5842;-60
2024/01/10 16:33:29;;;;;;;;;;;;;;;6.31;56.24;97387.25;4217133;28;5676;-60
2024/01/10 16:35:32;;;;;;;;;;;;;;;6.29;56.55;97387.41;4217369;28;5782;-60
2024/01/10 16:37:35;;;;;;;;;;;;;;;6.30;56.74;97389.03;4217842;28;5755;-60
2024/01/10 16:39:39;;;;;;;;;;;;;;;6.31;56.81;97388.06;4217622;28;5751;-60
2024/01/10 16:41:43;;;;;;;;;;;;;;;6.32;56.59;97388.88;4217634;28;5675;-60
2024/01/10 16:43:46;;;;;;;;;;;;;;;6.31;56.46;97390.69;4217675;28;6162;-61
2024/01/10 16:45:50;;;;;;;;;;;;;;;6.31;56.74;97398.56;4217721;28;5760;-61
2024/01/10 16:47:53;;;;;;;;;;;;;;;6.31;56.58;97387.25;4217697;28;5675;-61
2024/01/10 16:49:59;;;;;;;;;;;;;;;6.31;56.44;97385.44;4217484;28;5694;-60
2024/01/10 16:52:01;;;;;;;;;;;;;;;6.35;56.44;97386.81;4218060;28;5667;-60
2024/01/10 16:54:05;;;;;;;;;;;;;;;6.36;56.79;97391.06;4217907;28;5730;-60
2024/01/10 16:56:08;;;;;;;;;;;;;;;6.36;56.60;97392.88;4217708;28;5664;-61
2024/01/10 16:58:11;;;;;;;;;;;;;;;6.37;56.66;97392.72;4217102;28;5663;-60
2024/01/10 17:00:15;;;;;;;;;;;;;;;6.39;56.49;97388.13;4217058;28;5727;-60
2024/01/10 17:02:19;;;;;;;;;;;;;;;6.35;56.29;97383.34;4217293;28;5646;-60
2024/01/10 17:04:23;;;;;;;;;;;;;;;6.30;55.71;97381.16;4217406;28;5791;-60
2024/01/10 17:06:27;;;;;;;;;;;;;;;6.24;55.85;97381.78;4217645;28;5739;-60
2024/01/10 17:08:31;;;;;;;;;;;;;;;6.21;56.15;97382.06;4217280;28;5772;-60
2024/01/10 17:10:34;;;;;;;;;;;;;;;6.18;56.16;97379.75;4217128;28;5758;-60
2024/01/10 17:12:38;;;;;;;;;;;;;;;6.17;56.17;97385.16;4217136;28;6483;-60
2024/01/10 17:14:42;;;;;;;;;;;;;;;6.11;55.99;97376.91;4217000;28;5872;-61
2024/01/10 17:16:45;;;;;;;;;;;;;;;6.12;55.88;97378.56;4216766;28;5680;-61
2024/01/10 17:18:48;;;;;;;;;;;;;;;6.10;55.88;97385.75;4217130;28;5688;-60
2024/01/10 17:20:51;;;;;;;;;;;;;;;6.10;56.02;97379.69;4216896;28;5730;-60
2024/01/10 17:22:56;;;;;;;;;;;;;;;6.09;56.21;97386.72;4216938;28;5766;-60
2024/01/10 17:25:00;;;;;;;;;;;;;;;6.09;56.28;97384.09;4216947;28;6370;-60
2024/01/10 17:27:04;;;;;;;;;;;;;;;6.10;56.20;97385.75;4217071;28;5683;-60
2024/01/10 17:29:07;;;;;;;;;;;;;;;6.10;56.17;97384.94;4217114;28;5800;-60
2024/01/10 17:31:11;;;;;;;;;;;;;;;6.08;55.99;97389.50;4216724;28;5672;-60